Turrialba, Costa Rica
Current Conditions -  °F | °C
As of 5:00 PM on Monday 20 Oct 2014 (Local Time) from MRPV Reporting Station
Haze Haze  
Wind Chill: 68°   Ceiling: 800
Heat Index: 68°   Visibility: 2.5mi
Dew Point: 68°   Wind: 5mph
Humidity: 100%   Direction: 300°WNW
Pressure: 29.95"   Gusts: NA
Location:  9.56°N, 83.4°W
Report Text: MRPV 202300Z 30004KT 4000 BR BKN008 20/20 A2995 NOSIG
Loading
Personal Weather Stations






























Interactive Weather Map
Tropical Storm Tracking
New forecast layout! Learn more

10-Day Weather Forecast

Advertisements
Track Severe Weather on mobile